Nearby METAR Reports

 

KOAK - Oakland, California, USA
Distance from station: SSW 6mi, 9km
Updated: Mon, 30-Mar-2020 12:53am PDT
Partly cloudy
Partly cloudy
 Wind from W
Wind: W 6 mph , 9 km/h
Temperature: 55°F , 13°C
Dew Point: 48°F , 9°C
Humidity: 77%
Barometer: 30.21 inHg , 1023 hPa
Clouds: Partly cloudy
Visibility: 10 miles , 16 km
Cloud details: Few Clouds 1000 ft
Partly cloudy 3500 ft
2020/03/30 07:53 KOAK 300753Z 27005KT 10SM FEW010 SCT035 13/09 A3021 RMK AO2 SLP229 T01280089 401720117 $
KHWD - Hayward, California, USA
Distance from station: SSE 8mi, 12km
Updated: Mon, 30-Mar-2020 12:54am PDT
Mostly cloudy
Mostly cloudy
 Wind from WNW
Wind: WNW 5 mph , 7 km/h
Temperature: 52°F , 11°C
Dew Point: 46°F , 8°C
Humidity: 82%
Barometer: 30.19 inHg , 1022.4 hPa
Clouds: Mostly cloudy
Visibility: 10 miles , 16 km
Cloud details: Few Clouds 1700 ft
Mostly cloudy 3900 ft
2020/03/30 07:54 KHWD 300754Z 29004KT 10SM FEW017 BKN039 11/08 A3019 RMK AO2 SLP234 T01110083 401670106
KSFO - San Francisco, California, USA
Distance from station: SW 15mi, 25km
Updated: Mon, 30-Mar-2020 12:56am PDT
Few Clouds
Few Clouds
 Wind from WSW
Wind: WSW 6 mph , 9 km/h
Temperature: 52°F , 11°C
Dew Point: 46°F , 8°C
Humidity: 82%
Barometer: 30.20 inHg , 1022.7 hPa
Clouds: Few Clouds
Visibility: 10 miles , 16 km
Cloud details: Few Clouds 1200 ft
Few Clouds 4000 ft
2020/03/30 07:56 KSFO 300756Z 24005KT 10SM FEW012 FEW040 11/08 A3020 RMK AO2 SLP227 T01110078 401560100
 
KCCR - Concord, California, USA
Distance from station: NNE 17mi, 27km
Updated: Mon, 30-Mar-2020 12:53am PDT
Clear
Clear
 Wind from SSW
Wind: SSW 6 mph , 9 km/h
Temperature: 48°F , 9°C
Wind Chill: 45°F , 7°C
Dew Point: 45°F , 7°C
Humidity: 87%
Barometer: 30.19 inHg , 1022.4 hPa
Clouds: Clear
Visibility: 10 miles , 16 km
2020/03/30 07:53 KCCR 300753Z AUTO 20005KT 10SM CLR 09/07 A3019 RMK AO2 SLP209 T00890072 401560089
KSQL - San Carlos Airpo, California, USA
Distance from station: SSW 18mi, 29km
Updated: Mon, 30-Mar-2020 1:00am PDT
Few Clouds
Few Clouds
 Wind from calm
Wind: Calm
Temperature: 52°F , 11°C
Dew Point: 48°F , 9°C
Humidity: 88%
Barometer: 30.21 inHg , 1023 hPa
Clouds: Few Clouds
Visibility: 10 miles , 16 km
Cloud details: Few Clouds 3700 ft
2020/03/30 08:00 KSQL 300800Z AUTO 00000KT 10SM FEW037 11/09 A3021 RMK AO2
KLVK - Livermore, California, USA
Distance from station: ESE 20mi, 31km
Updated: Mon, 30-Mar-2020 12:53am PDT
Overcast
Overcast
 Wind from W
Wind: W 7 mph , 11 km/h
Temperature: 52°F , 11°C
Dew Point: 46°F , 8°C
Humidity: 82%
Barometer: 30.19 inHg , 1022.4 hPa
Clouds: Overcast
Visibility: 10 miles , 16 km
Cloud details: Mostly cloudy 1800 ft
Overcast 2600 ft
2020/03/30 07:53 KLVK 300753Z AUTO 28006KT 10SM BKN018 OVC026 11/08 A3019 RMK AO2 SLP223 T01060083 401610083
 
KPAO - Palo Alto, California, USA
Distance from station: S 21mi, 34km
Updated: Sun, 29-Mar-2020 8:47pm PDT
NOT Current
Partly cloudy
Partly cloudy
 Wind from NW
Wind: NW 7 mph , 11 km/h
Temperature: 54°F , 12°C
Dew Point: 48°F , 9°C
Humidity: 82%
Barometer: 30.16 inHg , 1021.3 hPa
Clouds: Partly cloudy
Visibility: 10 miles , 16 km
Cloud details: Partly cloudy 3000 ft
2020/03/30 03:47 KPAO 300347Z 32006KT 10SM SCT030 12/09 A3016 RMK LAST
KHAF - Half Moon Bay, California, USA
Distance from station: SW 25mi, 41km
Updated: Mon, 30-Mar-2020 1:00am PDT
Overcast
Overcast
 Wind from calm
Wind: Calm
Temperature: 48°F , 9°C
Dew Point: 46°F , 8°C
Humidity: 94%
Barometer: 30.22 inHg , 1023.4 hPa
Clouds: Overcast
Visibility: 10 miles , 16 km
Cloud details: Mostly cloudy 1900 ft
Overcast 2600 ft
2020/03/30 08:00 KHAF 300800Z AUTO 00000KT 10SM BKN019 OVC026 09/08 A3022 RMK AO2
KNUQ - Moffett Nas/Mtn, California, USA
Distance from station: SSE 26mi, 42km
Updated: Thu, 21-Nov-2019 8:56am PST
NOT Current

 
Barometer: 29.86 inHg , 1011.2 hPa
2019/11/21 16:56 KNUQ 211656Z AUTO A2986 RMK AO2 SLP116 PWINO $
 
KAPC - Napa, California, USA
Distance from station: NNW 30mi, 49km
Updated: Mon, 30-Mar-2020 12:54am PDT
Partly cloudy
Partly cloudy
 Wind from WSW
Wind: WSW 9 mph , 15 km/h
Temperature: 50°F , 10°C
Wind Chill: 46°F , 8°C
Dew Point: 46°F , 8°C
Humidity: 88%
Barometer: 30.20 inHg , 1022.7 hPa
Clouds: Partly cloudy
Visibility: 10 miles , 16 km
Cloud details: Partly cloudy 2300 ft
2020/03/30 07:54 KAPC 300754Z AUTO 25008KT 10SM SCT023 10/08 A3020 RMK AO2 SLP217 T01000083 401670067
KSJC - San Jose, California, USA
Distance from station: SSE 31mi, 50km
Updated: Mon, 30-Mar-2020 12:53am PDT
Overcast
Overcast
 Wind from NNW
Wind: NNW 7 mph , 11 km/h
Temperature: 54°F , 12°C
Dew Point: 48°F , 9°C
Humidity: 82%
Barometer: 30.20 inHg , 1022.7 hPa
Clouds: Overcast
Visibility: 10 miles , 16 km
Cloud details: Overcast 2700 ft
2020/03/30 07:53 KSJC 300753Z AUTO 33006KT 10SM OVC027 12/09 A3020 RMK AO2 SLP226 T01220089 401780100
KDVO - Novato/Gnoss Fld, California, USA
Distance from station: NW 34mi, 54km
Updated: Mon, 30-Mar-2020 12:55am PDT
Overcast
Overcast
 Wind from W
Wind: W 5 mph , 7 km/h
Temperature: 52°F , 11°C
Dew Point: 48°F , 9°C
Humidity: 88%
Barometer: 30.21 inHg , 1023 hPa
Clouds: Overcast
Visibility: 10 miles , 16 km
Cloud details: Mostly cloudy 2100 ft
Overcast 2600 ft
2020/03/30 07:55 KDVO 300755Z AUTO 26004KT 10SM BKN021 OVC026 11/09 A3021 RMK AO2
 
KRHV - San Jose/Reid, California, USA
Distance from station: SSE 37mi, 59km
Updated: Sun, 29-Mar-2020 9:50pm PDT
NOT Current
Mostly cloudy
Mostly cloudy
 Wind from NW
Wind: NW 7 mph , 11 km/h
Temperature: 55°F , 13°C
Dew Point: 48°F , 9°C
Humidity: 77%
Barometer: 30.18 inHg , 1022 hPa
Clouds: Mostly cloudy
Visibility: 10 miles , 16 km
Cloud details: Mostly cloudy 4000 ft
2020/03/30 04:50 KRHV 300450Z 32006KT 10SM BKN040 13/09 A3018
KSUU - Travis Afb/Fairf, California, USA
Distance from station: NNE 37mi, 59km
Updated: Mon, 30-Mar-2020 12:58am PDT
Clear
Clear
 Wind from S
Wind: S 10 mph , 17 km/h
Temperature: 48°F , 9°C
Wind Chill: 44°F , 7°C
Dew Point: 45°F , 7°C
Humidity: 87%
Barometer: 30.18 inHg , 1022 hPa
Clouds: Clear
Visibility: 10 miles , 16 km
2020/03/30 07:58 KSUU 300758Z AUTO 18009KT 10SM CLR 09/07 A3018 RMK AO2 SLP227 T00890073 401760084 $
KO69 - Petaluma, California, USA
Distance from station: NW 41mi, 66km
Updated: Mon, 30-Mar-2020 12:55am PDT
Overcast
Overcast
 Wind from calm
Wind: Calm
Temperature: 50°F , 10°C
Dew Point: 50°F , 10°C
Humidity: 100%
Barometer: 30.21 inHg , 1023 hPa
Clouds: Overcast
Visibility: 10 miles , 16 km
Cloud details: Overcast 2400 ft
2020/03/30 07:55 KO69 300755Z AUTO 00000KT 10SM OVC024 10/10 A3021 RMK A01
 
KVCB - Vacaville, California, USA
Distance from station: NNE 44mi, 71km
Updated: Mon, 30-Mar-2020 12:53am PDT
Clear
Clear
 Wind from SSW
Wind: SSW 7 mph , 11 km/h
Temperature: 50°F , 10°C
Wind Chill: 47°F , 8°C
Dew Point: 45°F , 7°C
Humidity: 82%
Barometer: 30.18 inHg , 1022 hPa
Clouds: Clear
Visibility: 10 miles , 16 km
2020/03/30 07:53 KVCB 300753Z AUTO 20006KT 10SM CLR 10/07 A3018 RMK AO2 SLP218 T01000072 401670083